createdAt,value
2022-09-16T00:02:04.713Z,6.03
2022-09-16T00:04:33.944Z,5.77
2022-09-16T00:07:03.545Z,5.83
2022-09-16T00:09:32.685Z,5.77
2022-09-16T00:12:01.910Z,5.80
2022-09-16T00:14:30.982Z,5.90
2022-09-16T00:17:00.232Z,6.30
2022-09-16T00:19:30.818Z,5.57
2022-09-16T00:21:59.891Z,6.30
2022-09-16T00:24:29.487Z,5.90
2022-09-16T00:26:58.611Z,5.90
2022-09-16T00:29:28.026Z,6.00
2022-09-16T00:31:57.149Z,5.77
2022-09-16T00:34:26.296Z,6.10
2022-09-16T00:36:56.778Z,5.57
2022-09-16T00:39:25.838Z,6.13
2022-09-16T00:41:54.867Z,5.97
2022-09-16T00:44:55.880Z,6.27
2022-09-16T00:47:30.037Z,5.67
2022-09-16T00:50:05.825Z,5.50
2022-09-16T00:52:36.875Z,6.13
2022-09-16T00:55:10.263Z,6.10
2022-09-16T00:57:40.879Z,6.00
2022-09-16T01:00:12.215Z,5.90
2022-09-16T01:02:43.732Z,6.00
2022-09-16T01:05:16.329Z,5.87
2022-09-16T01:07:49.013Z,6.23
2022-09-16T01:10:20.188Z,6.07
2022-09-16T01:12:52.924Z,5.43
2022-09-16T01:15:24.925Z,5.50
2022-09-16T01:18:14.968Z,5.63
2022-09-16T01:21:07.004Z,5.97
2022-09-16T01:24:08.234Z,5.83
2022-09-16T01:27:05.524Z,5.97
2022-09-16T01:29:48.303Z,5.83
2022-09-16T01:32:25.396Z,5.60
2022-09-16T01:35:02.766Z,6.10
2022-09-16T01:37:41.312Z,6.53
2022-09-16T01:40:17.370Z,6.07
2022-09-16T01:42:52.532Z,5.67
2022-09-16T01:45:28.192Z,5.87
2022-09-16T01:48:05.199Z,6.17
2022-09-16T01:50:40.432Z,5.90
2022-09-16T01:53:18.207Z,5.37
2022-09-16T01:55:52.131Z,5.73
2022-09-16T01:58:26.257Z,6.40
2022-09-16T02:01:02.630Z,6.30
2022-09-16T02:03:36.617Z,6.03
2022-09-16T02:06:09.400Z,5.60
2022-09-16T02:08:43.111Z,5.60
2022-09-16T02:11:16.639Z,6.20
2022-09-16T02:13:49.309Z,5.93
2022-09-16T02:16:24.091Z,6.10
2022-09-16T02:18:57.522Z,6.10
2022-09-16T02:21:30.118Z,5.93
2022-09-16T02:24:03.360Z,6.07
2022-09-16T02:26:37.938Z,6.00
2022-09-16T02:29:14.346Z,6.37
2022-09-16T02:31:45.299Z,6.40
2022-09-16T02:34:19.193Z,6.80
2022-09-16T02:36:53.562Z,6.17
2022-09-16T02:39:29.343Z,5.80
2022-09-16T02:41:59.727Z,5.80
2022-09-16T02:44:28.758Z,6.07
2022-09-16T02:47:02.099Z,5.73
2022-09-16T02:49:42.088Z,6.27
2022-09-16T02:52:19.085Z,6.27
2022-09-16T02:54:54.027Z,5.97
2022-09-16T02:57:23.264Z,6.77
2022-09-16T02:59:52.776Z,6.43
2022-09-16T03:02:22.304Z,5.90
2022-09-16T03:04:52.711Z,6.50
2022-09-16T03:07:21.580Z,6.63
2022-09-16T03:09:52.112Z,6.83
2022-09-16T03:12:46.627Z,6.20
2022-09-16T03:15:42.768Z,6.50
2022-09-16T03:18:33.958Z,6.63
2022-09-16T03:21:16.461Z,6.40
2022-09-16T03:23:53.119Z,6.60
2022-09-16T03:26:32.442Z,6.70
2022-09-16T03:29:12.390Z,6.20
2022-09-16T03:31:49.028Z,6.23
2022-09-16T03:34:24.310Z,6.27
2022-09-16T03:37:00.360Z,6.60
2022-09-16T03:39:29.643Z,6.40
2022-09-16T03:42:02.314Z,6.20
2022-09-16T03:44:35.840Z,6.10
2022-09-16T03:47:05.416Z,5.97
2022-09-16T03:49:34.482Z,6.77
2022-09-16T03:52:05.838Z,6.57
2022-09-16T03:54:35.298Z,6.07
2022-09-16T03:57:04.854Z,6.07
2022-09-16T03:59:34.077Z,6.63
2022-09-16T04:02:03.167Z,6.00
2022-09-16T04:04:32.078Z,6.83
2022-09-16T04:07:01.285Z,6.17
2022-09-16T04:09:31.752Z,6.20
2022-09-16T04:12:00.847Z,6.23
2022-09-16T04:14:29.958Z,5.80
2022-09-16T04:16:58.661Z,6.00
2022-09-16T04:19:28.001Z,6.33
2022-09-16T04:21:56.956Z,5.80
2022-09-16T04:24:26.028Z,6.37
2022-09-16T04:26:56.194Z,6.47
2022-09-16T04:29:25.350Z,6.23
2022-09-16T04:31:54.923Z,6.50
2022-09-16T04:34:23.826Z,5.97
2022-09-16T04:36:52.739Z,6.37
2022-09-16T04:39:21.581Z,6.50
2022-09-16T04:41:50.534Z,5.83
2022-09-16T04:44:20.690Z,6.03
2022-09-16T04:46:49.720Z,6.50
2022-09-16T04:49:18.767Z,6.33
2022-09-16T04:51:48.505Z,6.70
2022-09-16T04:54:17.655Z,6.00
2022-09-16T04:56:46.867Z,5.90
2022-09-16T04:59:16.155Z,6.10
2022-09-16T05:01:46.439Z,6.80
2022-09-16T05:04:15.464Z,6.17
2022-09-16T05:06:45.294Z,6.50
2022-09-16T05:09:14.717Z,6.47
2022-09-16T05:11:43.778Z,6.17
2022-09-16T05:14:15.885Z,6.70
2022-09-16T05:16:46.431Z,6.33
2022-09-16T05:19:16.308Z,6.23
2022-09-16T05:21:45.347Z,5.80
2022-09-16T05:24:15.149Z,6.70
2022-09-16T05:26:44.841Z,6.73
2022-09-16T05:29:16.217Z,6.70
2022-09-16T05:31:47.895Z,6.47
2022-09-16T05:34:19.180Z,6.43
2022-09-16T05:36:49.467Z,6.60
2022-09-16T05:39:24.307Z,6.30
2022-09-16T05:41:56.219Z,6.50
2022-09-16T05:44:25.465Z,6.47
2022-09-16T05:46:55.999Z,6.20
2022-09-16T05:49:25.724Z,6.40
2022-09-16T05:51:54.987Z,6.60
2022-09-16T05:54:25.255Z,6.50
2022-09-16T05:56:55.406Z,6.27
2022-09-16T05:59:24.522Z,6.40
2022-09-16T06:01:55.088Z,6.43
2022-09-16T06:04:24.095Z,6.10
2022-09-16T06:06:53.151Z,5.77
2022-09-16T06:09:25.390Z,5.80
2022-09-16T06:12:01.459Z,5.70
2022-09-16T06:14:31.027Z,6.00
2022-09-16T06:17:01.556Z,5.63
2022-09-16T06:19:30.530Z,5.40
2022-09-16T06:21:59.419Z,6.03
2022-09-16T06:24:28.167Z,5.50
2022-09-16T06:26:57.155Z,5.73
2022-09-16T06:29:26.423Z,5.07
2022-09-16T06:31:55.619Z,5.43
2022-09-16T06:34:26.787Z,4.73
2022-09-16T06:36:55.964Z,4.70
2022-09-16T06:39:25.479Z,5.03
2022-09-16T06:41:56.332Z,4.80
2022-09-16T06:44:35.400Z,4.93
2022-09-16T06:47:04.540Z,5.13
2022-09-16T06:49:34.767Z,5.03
2022-09-16T06:52:04.091Z,4.97
2022-09-16T06:54:34.643Z,5.10
2022-09-16T06:57:06.529Z,4.60
2022-09-16T06:59:38.623Z,4.57
2022-09-16T07:02:08.485Z,4.47
2022-09-16T07:04:38.902Z,4.97
2022-09-16T07:07:10.338Z,4.47
2022-09-16T07:09:39.960Z,5.00
2022-09-16T07:12:09.425Z,4.27
2022-09-16T07:14:38.461Z,4.87
2022-09-16T07:17:08.929Z,4.20
2022-09-16T07:19:41.905Z,4.20
2022-09-16T07:22:11.539Z,4.20
2022-09-16T07:24:40.523Z,3.67
2022-09-16T07:27:09.651Z,3.73
2022-09-16T07:29:38.876Z,3.97
2022-09-16T07:32:08.460Z,3.70
2022-09-16T07:34:38.986Z,3.30
2022-09-16T07:37:07.808Z,3.00
2022-09-16T07:39:37.177Z,3.00
2022-09-16T07:42:07.137Z,2.73
2022-09-16T07:44:37.677Z,2.90
2022-09-16T07:47:07.359Z,2.70
2022-09-16T07:49:37.243Z,2.60
2022-09-16T07:52:07.681Z,2.70
2022-09-16T07:54:37.240Z,2.57
2022-09-16T07:57:06.467Z,2.77
2022-09-16T07:59:35.467Z,2.40
2022-09-16T08:02:04.409Z,2.60
2022-09-16T08:04:34.100Z,2.40
2022-09-16T08:07:03.609Z,2.00
2022-09-16T08:09:38.936Z,1.90
2022-09-16T08:12:10.678Z,2.00
2022-09-16T08:14:39.779Z,1.97
2022-09-16T08:17:09.181Z,2.00
2022-09-16T08:19:39.271Z,1.93
2022-09-16T08:22:08.775Z,2.00
2022-09-16T08:24:39.983Z,2.20
2022-09-16T08:27:09.361Z,2.10
2022-09-16T08:29:38.624Z,2.40
2022-09-16T08:32:08.444Z,2.10
2022-09-16T08:34:39.214Z,2.20
2022-09-16T08:37:08.960Z,2.47
2022-09-16T08:39:40.005Z,2.17
2022-09-16T08:42:32.804Z,2.40
2022-09-16T08:45:15.122Z,2.40
2022-09-16T08:47:54.204Z,2.80
2022-09-16T08:50:27.070Z,2.77
2022-09-16T08:52:59.417Z,2.50
2022-09-16T08:55:34.338Z,2.60
2022-09-16T08:58:11.749Z,2.60
2022-09-16T09:00:41.572Z,2.83
2022-09-16T09:03:35.184Z,2.90
2022-09-16T09:06:15.443Z,3.00
2022-09-16T09:08:51.990Z,3.00
2022-09-16T09:11:28.695Z,2.97
2022-09-16T09:14:18.835Z,3.20
2022-09-16T09:16:57.298Z,3.00
2022-09-16T09:19:39.679Z,3.40
2022-09-16T09:22:21.519Z,3.30
2022-09-16T09:25:06.782Z,3.20
2022-09-16T09:27:45.336Z,3.43
2022-09-16T09:30:21.028Z,3.13
2022-09-16T09:33:03.467Z,3.40
2022-09-16T09:35:49.787Z,2.90
2022-09-16T09:38:42.591Z,2.73
2022-09-16T09:41:16.556Z,3.00
2022-09-16T09:43:50.185Z,3.10
2022-09-16T09:46:26.605Z,2.90
2022-09-16T09:49:01.157Z,3.00
2022-09-16T09:51:34.138Z,2.90
2022-09-16T09:54:23.922Z,3.00
2022-09-16T09:56:56.322Z,2.60
2022-09-16T09:59:33.489Z,2.70
2022-09-16T10:02:04.294Z,2.80
2022-09-16T10:04:39.927Z,2.90
2022-09-16T10:07:10.245Z,2.90
2022-09-16T10:09:48.401Z,3.00
2022-09-16T10:12:28.483Z,2.77
2022-09-16T10:14:59.013Z,2.90
2022-09-16T10:17:31.322Z,2.60
2022-09-16T10:20:03.977Z,2.57
2022-09-16T10:22:35.317Z,2.70
2022-09-16T10:25:08.179Z,2.70
2022-09-16T10:27:38.627Z,2.73
2022-09-16T10:30:16.014Z,2.90
2022-09-16T10:32:52.643Z,3.00
2022-09-16T10:35:25.385Z,2.93
2022-09-16T10:37:57.161Z,3.37
2022-09-16T10:40:31.604Z,3.03
2022-09-16T10:43:04.352Z,2.97
2022-09-16T10:45:37.312Z,2.80
2022-09-16T10:48:13.157Z,2.90
2022-09-16T10:50:54.351Z,2.80
2022-09-16T10:53:32.209Z,2.80
2022-09-16T10:56:03.010Z,2.70
2022-09-16T10:58:32.171Z,2.63
2022-09-16T11:01:23.429Z,2.80
2022-09-16T11:04:22.738Z,3.00
2022-09-16T11:07:03.067Z,3.00
2022-09-16T11:09:47.349Z,2.97
2022-09-16T11:12:38.143Z,2.87
2022-09-16T11:15:18.115Z,2.77
2022-09-16T11:18:02.228Z,3.00
2022-09-16T11:21:04.799Z,2.47
2022-09-16T11:23:47.331Z,2.77
2022-09-16T11:26:25.587Z,2.80
2022-09-16T11:29:10.238Z,2.90
2022-09-16T11:31:48.277Z,2.80
2022-09-16T11:34:31.086Z,2.50
2022-09-16T11:37:08.612Z,2.60
2022-09-16T11:39:50.166Z,2.40
2022-09-16T11:42:28.501Z,2.47
2022-09-16T11:45:08.581Z,2.50
2022-09-16T11:47:55.528Z,2.23
2022-09-16T11:50:38.482Z,2.20
2022-09-16T11:53:32.134Z,2.10
2022-09-16T11:56:05.660Z,1.70
2022-09-16T11:58:39.618Z,1.80
2022-09-16T12:01:19.936Z,1.70
2022-09-16T12:03:55.372Z,1.67
2022-09-16T12:06:29.054Z,1.40
2022-09-16T12:09:04.683Z,1.60
2022-09-16T12:11:38.736Z,1.30
2022-09-16T12:14:12.515Z,1.20
2022-09-16T12:16:46.500Z,1.30
2022-09-16T12:19:22.109Z,1.57
2022-09-16T12:21:58.032Z,1.40
2022-09-16T12:24:36.891Z,1.10
2022-09-16T12:27:12.159Z,1.10
2022-09-16T12:29:49.703Z,0.90
2022-09-16T12:32:23.879Z,1.17
2022-09-16T12:34:58.125Z,1.30
2022-09-16T12:37:36.468Z,1.33
2022-09-16T12:40:07.510Z,1.30
2022-09-16T12:43:07.582Z,1.40
2022-09-16T12:46:08.562Z,1.70
2022-09-16T12:49:21.167Z,1.70
2022-09-16T12:52:28.657Z,2.30
2022-09-16T12:55:25.371Z,2.23
2022-09-16T12:58:17.548Z,2.20
2022-09-16T13:00:57.015Z,2.37
2022-09-16T13:03:31.454Z,2.57
2022-09-16T13:06:05.421Z,2.60
2022-09-16T13:08:36.719Z,2.63
2022-09-16T13:12:05.182Z,2.60
2022-09-16T13:13:59.998Z,2.43
2022-09-16T13:16:32.158Z,2.60
2022-09-16T13:19:28.574Z,2.63
2022-09-16T13:22:02.272Z,2.60
2022-09-16T13:24:39.135Z,2.70
2022-09-16T13:27:35.447Z,2.53
2022-09-16T13:30:29.677Z,2.70
2022-09-16T13:33:02.147Z,2.90
2022-09-16T13:35:40.279Z,2.80
2022-09-16T13:38:38.710Z,2.80
2022-09-16T13:41:10.900Z,2.53
2022-09-16T13:43:53.767Z,2.70
2022-09-16T13:46:36.600Z,2.80
2022-09-16T13:49:17.675Z,2.87
2022-09-16T13:51:49.853Z,2.60
2022-09-16T13:54:28.503Z,2.70
2022-09-16T13:57:17.692Z,2.60
2022-09-16T14:00:04.238Z,2.50
2022-09-16T14:02:48.432Z,2.70
2022-09-16T14:05:37.799Z,2.50
2022-09-16T14:08:14.874Z,2.63
2022-09-16T14:10:52.796Z,2.60
2022-09-16T14:13:23.261Z,2.60
2022-09-16T14:15:57.817Z,2.70
2022-09-16T14:18:30.727Z,2.40
2022-09-16T14:21:03.119Z,2.80
2022-09-16T14:23:35.382Z,2.50
2022-09-16T14:26:15.452Z,2.90
2022-09-16T14:28:45.370Z,2.50
2022-09-16T14:31:19.659Z,2.67
2022-09-16T14:33:56.513Z,2.77
2022-09-16T14:36:28.691Z,2.83
2022-09-16T14:39:01.071Z,2.77
2022-09-16T14:41:36.575Z,2.70
2022-09-16T14:44:10.977Z,2.67
2022-09-16T14:46:46.671Z,3.00
2022-09-16T14:49:17.014Z,3.00
2022-09-16T14:51:49.065Z,2.70
2022-09-16T14:54:19.691Z,2.93
2022-09-16T14:57:00.467Z,2.80
2022-09-16T14:59:33.310Z,2.90
2022-09-16T15:02:09.539Z,2.90
2022-09-16T15:04:41.907Z,3.20
2022-09-16T15:07:15.254Z,3.00
2022-09-16T15:09:48.211Z,2.70
2022-09-16T15:12:26.107Z,2.90
2022-09-16T15:14:55.413Z,2.90
2022-09-16T15:17:28.936Z,3.10
2022-09-16T15:20:00.079Z,2.90
2022-09-16T15:22:29.452Z,3.10
2022-09-16T15:24:59.735Z,3.20
2022-09-16T15:27:32.245Z,3.07
2022-09-16T15:30:06.458Z,3.07
2022-09-16T15:32:46.490Z,3.20
2022-09-16T15:35:22.490Z,3.50
2022-09-16T15:37:53.615Z,3.10
2022-09-16T15:40:36.005Z,3.40
2022-09-16T15:43:18.411Z,3.63
2022-09-16T15:45:59.756Z,3.30
2022-09-16T15:48:35.547Z,3.33
2022-09-16T15:51:09.146Z,3.40
2022-09-16T15:53:43.674Z,3.33
2022-09-16T15:56:23.672Z,3.17
2022-09-16T15:58:57.983Z,3.50
2022-09-16T16:01:41.501Z,3.60
2022-09-16T16:04:14.272Z,3.30
2022-09-16T16:06:49.806Z,3.40
2022-09-16T16:09:42.615Z,3.50
2022-09-16T16:12:14.926Z,3.67
2022-09-16T16:14:46.519Z,3.30
2022-09-16T16:17:17.907Z,3.47
2022-09-16T16:19:50.052Z,3.87
2022-09-16T16:22:20.739Z,3.77
2022-09-16T16:24:49.896Z,3.43
2022-09-16T16:27:18.754Z,3.50
2022-09-16T16:29:47.933Z,3.80
2022-09-16T16:32:17.860Z,3.50
2022-09-16T16:34:50.170Z,3.60
2022-09-16T16:37:44.387Z,3.80
2022-09-16T16:40:10.197Z,3.90
2022-09-16T16:42:40.339Z,4.10
2022-09-16T16:45:10.297Z,4.03
2022-09-16T16:47:39.626Z,3.70
2022-09-16T16:50:11.350Z,3.80
2022-09-16T16:52:40.591Z,4.00
2022-09-16T16:55:10.647Z,4.00
2022-09-16T16:57:40.211Z,3.90
2022-09-16T17:00:10.840Z,3.77
2022-09-16T17:02:39.881Z,4.10
2022-09-16T17:05:11.028Z,4.00
2022-09-16T17:07:40.180Z,4.13
2022-09-16T17:10:10.606Z,4.30
2022-09-16T17:12:39.841Z,4.20
2022-09-16T17:15:09.418Z,4.00
2022-09-16T17:17:40.383Z,4.27
2022-09-16T17:20:10.849Z,4.60
2022-09-16T17:22:40.975Z,4.50
2022-09-16T17:25:10.731Z,4.57
2022-09-16T17:27:39.915Z,4.20
2022-09-16T17:30:10.068Z,4.10
2022-09-16T17:32:39.414Z,4.40
2022-09-16T17:35:10.803Z,4.30
2022-09-16T17:37:40.078Z,4.20
2022-09-16T17:40:09.900Z,3.97
2022-09-16T17:42:39.223Z,4.13
2022-09-16T17:45:08.959Z,4.53
2022-09-16T17:47:37.950Z,4.53
2022-09-16T17:50:10.502Z,4.97
2022-09-16T17:52:39.395Z,4.83
2022-09-16T17:55:09.639Z,4.90
2022-09-16T17:57:38.568Z,4.63
2022-09-16T18:00:08.823Z,4.37
2022-09-16T18:02:43.977Z,4.40
2022-09-16T18:05:14.982Z,4.30
2022-09-16T18:07:46.835Z,4.13
2022-09-16T18:10:16.017Z,4.30
2022-09-16T18:12:45.360Z,3.90
2022-09-16T18:15:14.900Z,3.93
2022-09-16T18:17:44.176Z,4.03
2022-09-16T18:20:15.274Z,3.70
2022-09-16T18:22:45.411Z,3.73
2022-09-16T18:25:17.712Z,3.93
2022-09-16T18:27:47.532Z,3.70
2022-09-16T18:30:19.299Z,4.17
2022-09-16T18:32:48.279Z,4.20
2022-09-16T18:35:20.603Z,4.53
2022-09-16T18:37:49.713Z,4.50
2022-09-16T18:40:19.444Z,4.77
2022-09-16T18:42:48.383Z,4.90
2022-09-16T18:45:17.729Z,4.27
2022-09-16T18:47:48.025Z,4.73
2022-09-16T18:50:18.314Z,4.60
2022-09-16T18:52:49.447Z,4.60
2022-09-16T18:55:18.557Z,4.83
2022-09-16T18:57:47.495Z,5.00
2022-09-16T19:00:17.730Z,4.93
2022-09-16T19:02:49.817Z,4.83
2022-09-16T19:05:19.350Z,4.40
2022-09-16T19:07:49.758Z,5.13
2022-09-16T19:10:19.095Z,5.30
2022-09-16T19:12:48.487Z,4.83
2022-09-16T19:15:17.817Z,4.40
2022-09-16T19:17:46.962Z,4.70
2022-09-16T19:20:17.581Z,4.90
2022-09-16T19:22:47.005Z,4.60
2022-09-16T19:25:17.451Z,4.80
2022-09-16T19:27:46.655Z,7.17
2022-09-16T19:30:16.275Z,7.73
2022-09-16T19:32:45.986Z,8.90
2022-09-16T19:35:16.421Z,7.67
2022-09-16T19:37:45.416Z,6.40
2022-09-16T19:40:14.563Z,5.87
2022-09-16T19:42:46.394Z,5.50
2022-09-16T19:45:15.687Z,5.47
2022-09-16T19:47:45.449Z,5.53
2022-09-16T19:50:14.597Z,5.20
2022-09-16T19:52:43.821Z,5.67
2022-09-16T19:55:13.266Z,5.30
2022-09-16T19:57:45.410Z,5.03
2022-09-16T20:00:16.851Z,5.23
2022-09-16T20:02:46.657Z,5.07
2022-09-16T20:05:15.938Z,4.67
2022-09-16T20:07:44.932Z,4.60
2022-09-16T20:10:14.209Z,4.57
2022-09-16T20:12:45.362Z,5.07
2022-09-16T20:15:14.487Z,4.47
2022-09-16T20:17:43.545Z,4.77
2022-09-16T20:20:13.346Z,4.80
2022-09-16T20:22:42.451Z,5.50
2022-09-16T20:25:23.133Z,4.67
2022-09-16T20:27:54.219Z,5.10
2022-09-16T20:30:23.170Z,4.93
2022-09-16T20:32:53.288Z,4.67
2022-09-16T20:35:23.054Z,4.67
2022-09-16T20:37:53.001Z,4.93
2022-09-16T20:40:23.049Z,5.63
2022-09-16T20:42:53.434Z,5.07
2022-09-16T20:45:23.328Z,5.43
2022-09-16T20:47:52.819Z,5.37
2022-09-16T20:50:21.762Z,4.80
2022-09-16T20:52:51.068Z,4.70
2022-09-16T20:55:20.069Z,5.10
2022-09-16T20:57:49.887Z,5.23
2022-09-16T21:00:20.884Z,5.13
2022-09-16T21:02:49.793Z,5.17
2022-09-16T21:05:18.934Z,4.60
2022-09-16T21:07:47.864Z,5.33
2022-09-16T21:10:18.039Z,5.40
2022-09-16T21:12:48.615Z,5.80
2022-09-16T21:15:17.897Z,4.90
2022-09-16T21:17:48.226Z,5.10
2022-09-16T21:20:18.180Z,5.17
2022-09-16T21:22:47.041Z,5.00
2022-09-16T21:25:16.188Z,5.20
2022-09-16T21:27:45.167Z,5.27
2022-09-16T21:30:15.385Z,5.10
2022-09-16T21:32:44.354Z,4.70
2022-09-16T21:35:15.021Z,4.93
2022-09-16T21:37:43.952Z,4.70
2022-09-16T21:40:13.392Z,5.00
2022-09-16T21:42:42.527Z,5.20
2022-09-16T21:45:12.170Z,5.00
2022-09-16T21:47:41.162Z,5.30
2022-09-16T21:50:10.655Z,5.50
2022-09-16T21:52:41.232Z,5.90
2022-09-16T21:55:10.583Z,5.33
2022-09-16T21:57:39.532Z,5.20
2022-09-16T22:00:11.039Z,5.43
2022-09-16T22:02:39.860Z,5.33
2022-09-16T22:05:09.383Z,5.17
2022-09-16T22:07:38.235Z,5.03
2022-09-16T22:10:09.650Z,5.20
2022-09-16T22:12:38.713Z,5.10
2022-09-16T22:15:09.072Z,4.73
2022-09-16T22:17:38.043Z,4.83
2022-09-16T22:20:07.938Z,5.30
2022-09-16T22:22:37.120Z,5.10
2022-09-16T22:25:08.356Z,5.47
2022-09-16T22:27:37.382Z,4.93
2022-09-16T22:30:07.378Z,4.90
2022-09-16T22:32:40.919Z,5.13
2022-09-16T22:35:10.647Z,5.07
2022-09-16T22:37:39.639Z,4.90
2022-09-16T22:40:11.068Z,5.27
2022-09-16T22:42:40.059Z,5.30
2022-09-16T22:45:10.213Z,5.03
2022-09-16T22:47:39.767Z,5.07
2022-09-16T22:50:09.631Z,5.27
2022-09-16T22:52:38.578Z,5.00
2022-09-16T22:55:10.123Z,4.83
2022-09-16T22:57:39.196Z,4.97
2022-09-16T23:00:09.299Z,5.33
2022-09-16T23:02:38.515Z,5.17
2022-09-16T23:05:08.766Z,5.20
2022-09-16T23:07:38.949Z,5.63
2022-09-16T23:10:10.790Z,5.43
2022-09-16T23:12:40.672Z,5.40
2022-09-16T23:15:11.422Z,5.47
2022-09-16T23:17:41.609Z,5.27
2022-09-16T23:20:10.986Z,5.10
2022-09-16T23:22:40.566Z,5.30
2022-09-16T23:25:11.096Z,5.30
2022-09-16T23:27:39.974Z,5.43
2022-09-16T23:30:10.047Z,5.60
2022-09-16T23:32:39.150Z,5.63
2022-09-16T23:35:08.690Z,5.47
2022-09-16T23:37:37.917Z,5.53
2022-09-16T23:40:10.421Z,5.90
2022-09-16T23:42:39.431Z,5.47
2022-09-16T23:45:09.059Z,5.90
2022-09-16T23:47:38.337Z,6.20
2022-09-16T23:50:11.280Z,5.97
2022-09-16T23:52:40.394Z,5.97
2022-09-16T23:55:13.532Z,5.57
2022-09-16T23:57:42.771Z,6.33
